Time;durP1;ratioP1;P1;durP2;ratioP2;P2;SDS_P1;SDS_P2;PMS_P1;PMS_P2;Temp;Humidity;BMP_temperature;BMP_pressure;BME280_temperature;BME280_humidity;BME280_pressure;Samples;Min_cycle;Max_cycle;Signal;HPM_P1;HPM_P2
2022/09/16 00:00:28;;;;;;;6.18;2.22;;;14.20;76.90;;;;;;4986485;28;20041;-72
2022/09/16 00:02:55;;;;;;;6.90;2.35;;;14.10;77.00;;;;;;4988009;28;20035;-71
2022/09/16 00:05:21;;;;;;;8.65;2.50;;;14.10;76.80;;;;;;4982756;28;20085;-72
2022/09/16 00:07:47;;;;;;;8.32;2.55;;;14.10;77.00;;;;;;4987910;28;20073;-72
2022/09/16 00:10:13;;;;;;;9.38;2.85;;;14.00;76.70;;;;;;4978452;28;20121;-72
2022/09/16 00:12:40;;;;;;;5.90;2.17;;;13.90;76.30;;;;;;4986352;28;20031;-71
2022/09/16 00:15:07;;;;;;;6.95;2.40;;;13.90;75.80;;;;;;4981788;28;20066;-72
2022/09/16 00:17:33;;;;;;;7.15;1.92;;;13.90;75.80;;;;;;4987630;28;20117;-72
2022/09/16 00:19:59;;;;;;;8.57;2.45;;;13.80;75.30;;;;;;4983863;28;20034;-71
2022/09/16 00:22:27;;;;;;;7.20;1.95;;;13.70;75.20;;;;;;4979142;28;20038;-71
2022/09/16 00:24:53;;;;;;;6.72;2.20;;;13.70;75.30;;;;;;4986151;28;20038;-71
2022/09/16 00:27:18;;;;;;;6.55;2.10;;;13.70;75.40;;;;;;4985084;28;20038;-72
2022/09/16 00:29:44;;;;;;;6.57;2.33;;;13.70;75.30;;;;;;4985765;28;20118;-71
2022/09/16 00:32:10;;;;;;;7.10;1.90;;;13.60;75.40;;;;;;4987207;28;20058;-72
2022/09/16 00:34:36;;;;;;;6.97;2.05;;;13.60;75.60;;;;;;4990410;28;20053;-71
2022/09/16 00:37:02;;;;;;;8.68;2.03;;;13.50;75.50;;;;;;4986494;28;20097;-72
2022/09/16 00:39:28;;;;;;;4.07;1.77;;;13.50;75.60;;;;;;4985073;28;20042;-72
2022/09/16 00:41:54;;;;;;;6.20;2.30;;;13.50;75.70;;;;;;4983238;28;20034;-72
2022/09/16 00:45:11;;;;;;;8.05;2.10;;;13.40;75.60;;;;;;4980499;28;20031;-72
2022/09/16 00:47:49;;;;;;;7.60;2.05;;;13.40;75.70;;;;;;4980459;28;20089;-72
2022/09/16 00:50:29;;;;;;;6.40;2.20;;;13.30;76.00;;;;;;4987794;28;20061;-71
2022/09/16 00:52:55;;;;;;;7.53;1.80;;;13.30;76.00;;;;;;4981381;28;20061;-71
2022/09/16 00:55:26;;;;;;;8.40;2.20;;;13.20;76.10;;;;;;4981166;28;20124;-71
2022/09/16 00:57:56;;;;;;;7.90;2.15;;;13.20;76.00;;;;;;4986177;28;20494;-72
2022/09/16 01:00:22;;;;;;;7.57;2.30;;;13.20;75.80;;;;;;4982598;28;20039;-72
2022/09/16 01:02:49;;;;;;;8.07;2.38;;;13.10;75.50;;;;;;4986869;28;20038;-72
2022/09/16 01:05:19;;;;;;;6.53;2.50;;;13.10;75.50;;;;;;4982653;28;20133;-72
2022/09/16 01:07:48;;;;;;;8.48;2.28;;;13.10;75.50;;;;;;4985532;28;20054;-71
2022/09/16 01:10:25;;;;;;;8.48;2.67;;;13.00;75.30;;;;;;4983009;28;20394;-72
2022/09/16 01:13:05;;;;;;;8.57;2.60;;;12.90;75.10;;;;;;4986093;28;20382;-72
2022/09/16 01:15:43;;;;;;;10.18;2.65;;;13.00;75.00;;;;;;4983138;28;20494;-72
2022/09/16 01:18:32;;;;;;;8.48;2.63;;;12.90;75.30;;;;;;4985412;28;20148;-71
2022/09/16 01:21:02;;;;;;;8.77;2.50;;;12.90;75.20;;;;;;4981304;28;20040;-72
2022/09/16 01:23:46;;;;;;;8.68;2.50;;;12.80;74.80;;;;;;4983989;28;20118;-72
2022/09/16 01:26:23;;;;;;;10.18;2.67;;;12.80;74.70;;;;;;4985238;28;20046;-72
2022/09/16 01:29:11;;;;;;;8.25;2.30;;;12.80;74.70;;;;;;4984822;28;20045;-72
2022/09/16 01:31:41;;;;;;;8.48;3.10;;;12.80;74.80;;;;;;4977032;28;20038;-71
2022/09/16 01:34:33;;;;;;;6.63;2.38;;;12.80;74.60;;;;;;4984814;28;20043;-72
2022/09/16 01:37:11;;;;;;;9.43;2.72;;;12.80;75.00;;;;;;4985486;28;20185;-72
2022/09/16 01:39:47;;;;;;;8.77;2.75;;;12.70;75.00;;;;;;4981614;28;20092;-71
2022/09/16 01:42:34;;;;;;;8.73;2.63;;;12.60;75.20;;;;;;4984175;28;20082;-72
2022/09/16 01:45:27;;;;;;;7.07;2.50;;;12.60;75.30;;;;;;4984518;28;20047;-72
2022/09/16 01:48:26;;;;;;;7.57;2.35;;;12.60;75.20;;;;;;4958664;28;20070;-71
2022/09/16 01:50:59;;;;;;;7.85;2.53;;;12.60;75.10;;;;;;4969733;28;20039;-71
2022/09/16 01:53:40;;;;;;;6.65;2.33;;;12.60;75.10;;;;;;4964589;28;20047;-72
2022/09/16 01:56:22;;;;;;;4.90;2.30;;;12.60;75.40;;;;;;4968547;28;20038;-72
2022/09/16 01:59:08;;;;;;;5.78;2.35;;;12.50;75.90;;;;;;4962086;28;20130;-72
2022/09/16 02:02:02;;;;;;;4.53;1.80;;;12.50;76.30;;;;;;4985677;28;20056;-71
2022/09/16 02:04:33;;;;;;;7.28;2.47;;;12.40;76.50;;;;;;4959989;28;20062;-71
2022/09/16 02:07:02;;;;;;;6.78;2.53;;;12.40;76.50;;;;;;4965845;28;20085;-72
2022/09/16 02:09:42;;;;;;;7.93;2.75;;;12.40;76.50;;;;;;4963776;28;20039;-72
2022/09/16 02:12:13;;;;;;;5.28;2.28;;;12.40;76.10;;;;;;4963600;28;20293;-71
2022/09/16 02:14:43;;;;;;;6.75;2.60;;;12.40;76.10;;;;;;4961126;28;20053;-72
2022/09/16 02:17:12;;;;;;;6.38;2.70;;;12.30;76.20;;;;;;4964145;28;20034;-72
2022/09/16 02:19:48;;;;;;;6.72;2.88;;;12.30;75.90;;;;;;4965460;28;20353;-71
2022/09/16 02:22:19;;;;;;;6.22;2.45;;;12.30;75.50;;;;;;4963844;28;20336;-72
2022/09/16 02:24:47;;;;;;;7.00;2.75;;;12.30;75.10;;;;;;4965181;28;20049;-71
2022/09/16 02:27:16;;;;;;;8.35;2.63;;;12.30;75.00;;;;;;4962341;28;20035;-72
2022/09/16 02:29:53;;;;;;;6.40;2.40;;;12.30;75.10;;;;;;4969922;28;20035;-71
2022/09/16 02:32:22;;;;;;;5.47;2.28;;;12.30;75.30;;;;;;4984475;28;20026;-71
2022/09/16 02:34:50;;;;;;;8.20;2.90;;;12.30;75.40;;;;;;4983459;28;20036;-72
2022/09/16 02:37:28;;;;;;;8.75;2.63;;;12.20;75.60;;;;;;4984063;28;20057;-72
2022/09/16 02:40:00;;;;;;;7.63;2.50;;;12.20;75.70;;;;;;4983932;28;20035;-71
2022/09/16 02:42:29;;;;;;;7.57;2.58;;;12.20;75.60;;;;;;4982335;28;20372;-72
2022/09/16 02:44:56;;;;;;;6.93;2.42;;;12.20;75.70;;;;;;4983184;28;20487;-72
2022/09/16 02:47:21;;;;;;;5.63;2.38;;;12.20;75.80;;;;;;4984932;28;20047;-72
2022/09/16 02:49:56;;;;;;;7.53;2.72;;;12.20;75.90;;;;;;4984024;28;20057;-71
2022/09/16 02:52:44;;;;;;;6.60;2.38;;;12.20;75.80;;;;;;4984468;28;20042;-73
2022/09/16 02:55:53;;;;;;;5.75;2.20;;;12.10;76.00;;;;;;4979451;28;20473;-72
2022/09/16 02:58:19;;;;;;;7.00;2.50;;;12.10;76.20;;;;;;4982330;28;20069;-73
2022/09/16 03:00:48;;;;;;;4.32;2.33;;;12.10;76.20;;;;;;4981747;28;20062;-72
2022/09/16 03:03:14;;;;;;;6.38;2.38;;;12.10;76.30;;;;;;4981912;28;20482;-72
2022/09/16 03:05:58;;;;;;;5.82;2.42;;;12.10;76.40;;;;;;4987402;28;20034;-73
2022/09/16 03:08:24;;;;;;;5.47;2.22;;;12.10;76.30;;;;;;4984494;28;20031;-72
2022/09/16 03:10:51;;;;;;;7.53;2.40;;;12.10;76.50;;;;;;4987063;28;20050;-71
2022/09/16 03:14:03;;;;;;;5.13;2.65;;;12.10;76.60;;;;;;4986403;28;20077;-71
2022/09/16 03:16:39;;;;;;;6.07;2.40;;;12.10;76.80;;;;;;4967104;28;20045;-73
2022/09/16 03:19:23;;;;;;;8.93;2.88;;;12.10;76.90;;;;;;4966536;28;20041;-72
2022/09/16 03:22:19;;;;;;;6.97;2.92;;;12.00;76.90;;;;;;4965577;28;20042;-72
2022/09/16 03:24:57;;;;;;;5.93;2.38;;;12.10;77.00;;;;;;4966125;28;20050;-71
2022/09/16 03:27:33;;;;;;;7.40;2.40;;;12.00;77.10;;;;;;4965018;28;20042;-71
2022/09/16 03:30:07;;;;;;;8.68;2.65;;;12.00;77.00;;;;;;4965077;28;20486;-71
2022/09/16 03:32:51;;;;;;;7.18;3.10;;;11.90;77.20;;;;;;4982143;28;20042;-71
2022/09/16 03:35:40;;;;;;;7.73;2.97;;;11.90;77.40;;;;;;4985321;28;20030;-71
2022/09/16 03:38:08;;;;;;;5.40;2.70;;;11.90;77.60;;;;;;4978873;28;20045;-71
2022/09/16 03:40:35;;;;;;;9.27;3.40;;;11.90;77.80;;;;;;4976253;28;20034;-71
2022/09/16 03:43:10;;;;;;;8.90;2.63;;;11.90;78.10;;;;;;4979637;28;20038;-71
2022/09/16 03:45:36;;;;;;;10.13;3.20;;;11.90;78.20;;;;;;4984487;28;20074;-71
2022/09/16 03:48:02;;;;;;;9.23;3.17;;;11.90;78.40;;;;;;4983055;28;20069;-72
2022/09/16 03:50:27;;;;;;;4.88;2.65;;;11.90;78.50;;;;;;4984101;28;20046;-72
2022/09/16 03:52:53;;;;;;;6.20;2.58;;;11.90;78.50;;;;;;4981131;28;20035;-73
2022/09/16 03:55:18;;;;;;;6.22;2.35;;;12.00;78.40;;;;;;4980961;28;20046;-73
2022/09/16 03:57:44;;;;;;;7.75;3.15;;;12.00;78.60;;;;;;4986734;28;20034;-72
2022/09/16 04:00:10;;;;;;;6.72;2.85;;;12.10;78.70;;;;;;4985510;28;20061;-72
2022/09/16 04:02:36;;;;;;;6.80;2.67;;;12.10;78.80;;;;;;4979598;28;20100;-72
2022/09/16 04:05:02;;;;;;;7.07;2.67;;;12.10;78.80;;;;;;4963776;28;20051;-72
2022/09/16 04:07:28;;;;;;;6.07;2.60;;;12.10;78.70;;;;;;4961675;28;20502;-72
2022/09/16 04:09:53;;;;;;;6.53;2.88;;;12.20;78.90;;;;;;4983536;28;20034;-72
2022/09/16 04:12:19;;;;;;;8.88;2.70;;;12.20;79.10;;;;;;4985137;28;20034;-73
2022/09/16 04:14:44;;;;;;;7.03;2.50;;;12.20;79.00;;;;;;4986977;28;20042;-72
2022/09/16 04:17:10;;;;;;;8.57;2.55;;;12.30;79.10;;;;;;4981811;28;20391;-71
2022/09/16 04:19:36;;;;;;;6.22;2.72;;;12.40;79.20;;;;;;4982489;28;20058;-72
2022/09/16 04:22:01;;;;;;;4.70;2.15;;;12.40;79.20;;;;;;4985641;28;20065;-73
2022/09/16 04:24:27;;;;;;;6.82;2.55;;;12.40;79.40;;;;;;4973053;28;20042;-72
2022/09/16 04:26:53;;;;;;;6.50;2.53;;;12.40;79.40;;;;;;4977657;28;20130;-73
2022/09/16 04:29:18;;;;;;;5.05;2.60;;;12.50;79.50;;;;;;4986434;28;20042;-73
2022/09/16 04:31:44;;;;;;;6.18;2.53;;;12.40;79.60;;;;;;4977842;28;20046;-72
2022/09/16 04:34:12;;;;;;;5.05;2.17;;;12.50;79.80;;;;;;4974915;28;20030;-72
2022/09/16 04:36:38;;;;;;;7.63;2.40;;;12.50;80.00;;;;;;4976343;28;20039;-72
2022/09/16 04:39:04;;;;;;;7.72;2.47;;;12.50;80.10;;;;;;4974047;28;20031;-72
2022/09/16 04:41:30;;;;;;;9.77;3.38;;;12.40;80.20;;;;;;4977488;28;20043;-72
2022/09/16 04:43:58;;;;;;;5.82;2.67;;;12.40;80.20;;;;;;4981951;28;20092;-72
2022/09/16 04:46:25;;;;;;;6.18;2.60;;;12.50;80.00;;;;;;4979584;28;20368;-71
2022/09/16 04:48:52;;;;;;;7.40;2.60;;;12.50;80.10;;;;;;4979473;28;20127;-72
2022/09/16 04:51:19;;;;;;;6.78;2.50;;;12.50;80.30;;;;;;4978505;28;20050;-72
2022/09/16 04:53:45;;;;;;;9.25;2.45;;;12.50;80.30;;;;;;4980140;28;20031;-72
2022/09/16 04:56:19;;;;;;;10.05;2.50;;;12.50;80.30;;;;;;4984575;28;20126;-73
2022/09/16 04:58:50;;;;;;;6.90;1.70;;;12.60;80.60;;;;;;4984420;28;20467;-72
2022/09/16 05:01:26;;;;;;;7.35;2.20;;;12.60;81.40;;;;;;4977106;28;20034;-72
2022/09/16 05:03:54;;;;;;;6.47;1.55;;;12.60;81.90;;;;;;4979353;28;20533;-72
2022/09/16 05:06:22;;;;;;;4.47;1.30;;;12.60;82.90;;;;;;4987758;28;20084;-72
2022/09/16 05:08:49;;;;;;;5.03;1.60;;;12.60;83.20;;;;;;4983103;28;20034;-72
2022/09/16 05:11:26;;;;;;;7.13;1.60;;;12.70;83.40;;;;;;4980143;28;20073;-72
2022/09/16 05:13:52;;;;;;;8.85;1.80;;;12.70;83.60;;;;;;4977124;28;20071;-72
2022/09/16 05:16:20;;;;;;;4.18;1.40;;;12.70;83.90;;;;;;4976658;28;20038;-72
2022/09/16 05:18:47;;;;;;;7.30;1.88;;;12.70;83.90;;;;;;4979719;28;20072;-72
2022/09/16 05:21:16;;;;;;;5.85;1.80;;;12.70;84.10;;;;;;4974290;28;20117;-74
2022/09/16 05:23:42;;;;;;;4.60;1.42;;;12.80;84.30;;;;;;4977501;28;20050;-72
2022/09/16 05:26:11;;;;;;;6.45;1.58;;;12.80;84.40;;;;;;4978895;28;20090;-72
2022/09/16 05:28:37;;;;;;;5.18;1.50;;;12.80;84.50;;;;;;4980444;28;20030;-73
2022/09/16 05:31:27;;;;;;;4.68;1.70;;;12.80;84.70;;;;;;4980394;28;20573;-73
2022/09/16 05:33:58;;;;;;;8.38;2.30;;;12.90;84.90;;;;;;4968614;28;20370;-74
2022/09/16 05:36:26;;;;;;;4.55;1.80;;;12.90;85.10;;;;;;4975647;28;20089;-73
2022/09/16 05:38:52;;;;;;;6.65;1.80;;;12.90;85.30;;;;;;4978609;28;20546;-73
2022/09/16 05:41:17;;;;;;;6.20;2.13;;;12.90;85.40;;;;;;4977888;28;20031;-73
2022/09/16 05:43:43;;;;;;;6.43;1.83;;;12.90;85.60;;;;;;4976762;28;20093;-73
2022/09/16 05:46:15;;;;;;;7.90;1.95;;;12.90;85.80;;;;;;4983520;28;20502;-73
2022/09/16 05:48:40;;;;;;;8.40;2.30;;;12.90;85.90;;;;;;4982123;28;20038;-74
2022/09/16 05:51:06;;;;;;;6.03;1.60;;;12.90;86.00;;;;;;4983788;28;20034;-74
2022/09/16 05:53:33;;;;;;;8.38;1.95;;;12.90;86.10;;;;;;4983065;28;20062;-74
2022/09/16 05:56:04;;;;;;;8.77;2.35;;;12.90;86.30;;;;;;4984523;28;20038;-73
2022/09/16 05:58:31;;;;;;;4.97;1.52;;;12.90;86.40;;;;;;4984325;28;20030;-74
2022/09/16 06:01:12;;;;;;;5.25;2.03;;;13.00;86.40;;;;;;4988012;28;20030;-74
2022/09/16 06:03:39;;;;;;;8.05;2.10;;;13.00;86.40;;;;;;4960471;28;20149;-72
2022/09/16 06:06:14;;;;;;;6.72;2.00;;;12.90;86.40;;;;;;4962828;28;20051;-72
2022/09/16 06:08:40;;;;;;;9.18;2.03;;;12.90;86.60;;;;;;4958524;28;20041;-74
2022/09/16 06:11:09;;;;;;;7.05;1.88;;;12.90;86.80;;;;;;4960005;28;20471;-73
2022/09/16 06:13:35;;;;;;;6.28;1.60;;;12.90;86.90;;;;;;4978349;28;20046;-73
2022/09/16 06:16:03;;;;;;;4.90;1.67;;;13.00;87.00;;;;;;4982040;28;20100;-75
2022/09/16 06:18:29;;;;;;;5.20;1.70;;;12.90;87.00;;;;;;4985333;28;20434;-73
2022/09/16 06:20:56;;;;;;;5.57;1.63;;;13.00;87.10;;;;;;4985077;28;20042;-73
2022/09/16 06:23:22;;;;;;;6.78;1.90;;;13.10;87.30;;;;;;4984296;28;20185;-73
2022/09/16 06:25:57;;;;;;;7.97;2.33;;;13.10;87.30;;;;;;4977408;28;20047;-73
2022/09/16 06:28:23;;;;;;;8.48;1.92;;;13.10;87.50;;;;;;4978364;28;20474;-73
2022/09/16 06:30:59;;;;;;;6.30;1.70;;;13.10;87.50;;;;;;4978820;28;20059;-72
2022/09/16 06:33:26;;;;;;;6.53;1.88;;;13.10;87.60;;;;;;4980191;28;20034;-73
2022/09/16 06:35:52;;;;;;;5.30;1.80;;;13.20;87.60;;;;;;4978490;28;20034;-73
2022/09/16 06:38:18;;;;;;;6.07;2.10;;;13.20;87.60;;;;;;4986389;28;20121;-72
2022/09/16 06:40:43;;;;;;;6.13;2.30;;;13.30;87.60;;;;;;4979155;28;20130;-72
2022/09/16 06:43:09;;;;;;;13.02;3.10;;;13.30;87.60;;;;;;4985013;28;20113;-73
2022/09/16 06:45:35;;;;;;;9.18;3.30;;;13.40;87.70;;;;;;4986612;28;20042;-73
2022/09/16 06:48:00;;;;;;;6.22;2.63;;;13.40;87.70;;;;;;4985556;28;20039;-74
2022/09/16 06:50:26;;;;;;;6.45;2.75;;;13.50;87.60;;;;;;4962972;28;20109;-73
2022/09/16 06:52:52;;;;;;;7.95;3.03;;;13.60;87.60;;;;;;4967895;28;20039;-73
2022/09/16 06:55:17;;;;;;;10.77;3.97;;;13.60;87.30;;;;;;4971360;28;20074;-73
2022/09/16 06:57:43;;;;;;;8.95;3.08;;;13.60;86.80;;;;;;4966953;28;20471;-74
2022/09/16 07:00:09;;;;;;;8.13;3.13;;;13.70;86.10;;;;;;4975621;28;20046;-73
2022/09/16 07:02:38;;;;;;;14.18;4.38;;;13.70;86.30;;;;;;4987376;28;20041;-73
2022/09/16 07:05:04;;;;;;;7.15;2.88;;;13.80;86.00;;;;;;4976695;28;20069;-73
2022/09/16 07:07:35;;;;;;;9.40;3.38;;;13.80;85.80;;;;;;4976192;28;20438;-73
2022/09/16 07:10:01;;;;;;;8.80;3.15;;;13.80;85.50;;;;;;4977564;28;20058;-71
2022/09/16 07:12:27;;;;;;;16.40;4.25;;;13.80;85.30;;;;;;4979187;28;21783;-72
2022/09/16 07:14:53;;;;;;;7.28;2.90;;;13.80;84.90;;;;;;4983016;28;20081;-72
2022/09/16 07:17:22;;;;;;;9.20;3.42;;;13.90;85.20;;;;;;4978184;28;20371;-72
2022/09/16 07:19:48;;;;;;;6.43;2.92;;;13.90;85.10;;;;;;4981012;28;20035;-72
2022/09/16 07:22:13;;;;;;;9.95;3.03;;;13.90;84.90;;;;;;4980130;28;20041;-72
2022/09/16 07:24:39;;;;;;;9.70;3.30;;;13.90;85.00;;;;;;4982363;28;20046;-72
2022/09/16 07:27:04;;;;;;;7.10;3.40;;;13.90;85.00;;;;;;4980778;28;20041;-72
2022/09/16 07:29:30;;;;;;;11.15;3.85;;;13.90;85.10;;;;;;4982714;28;20476;-73
2022/09/16 07:31:56;;;;;;;7.70;3.20;;;14.10;84.90;;;;;;4986866;28;20096;-73
2022/09/16 07:34:21;;;;;;;9.48;4.45;;;14.20;84.60;;;;;;4984060;28;20932;-73
2022/09/16 07:36:48;;;;;;;12.32;3.78;;;14.40;84.40;;;;;;4987255;28;20448;-74
2022/09/16 07:39:15;;;;;;;8.85;3.83;;;14.60;83.50;;;;;;4983515;28;20844;-74
2022/09/16 07:41:43;;;;;;;10.20;3.90;;;14.70;82.00;;;;;;4976330;28;20141;-74
2022/09/16 07:44:12;;;;;;;6.15;3.33;;;14.90;80.70;;;;;;4968027;28;20056;-76
2022/09/16 07:46:37;;;;;;;14.30;3.40;;;15.20;80.60;;;;;;4982765;28;20112;-75
2022/09/16 07:49:05;;;;;;;10.25;3.30;;;15.40;78.10;;;;;;4984350;28;20482;-75
2022/09/16 07:51:32;;;;;;;8.55;2.30;;;15.60;77.00;;;;;;4970144;28;20035;-75
2022/09/16 07:54:03;;;;;;;5.15;2.10;;;15.60;74.40;;;;;;4972543;28;20026;-75
2022/09/16 07:56:33;;;;;;;5.65;2.10;;;15.70;73.70;;;;;;4984230;28;20038;-72
2022/09/16 07:58:59;;;;;;;5.55;1.55;;;15.80;72.80;;;;;;4985694;28;20042;-74
2022/09/16 08:01:25;;;;;;;4.88;1.58;;;15.90;72.30;;;;;;4982573;28;20394;-73
2022/09/16 08:03:52;;;;;;;6.22;1.38;;;16.20;71.40;;;;;;4986113;28;20026;-74
2022/09/16 08:06:23;;;;;;;1.80;0.80;;;16.50;67.10;;;;;;4984159;28;20077;-73
2022/09/16 08:08:52;;;;;;;4.47;0.98;;;16.40;65.80;;;;;;4977560;28;20046;-74
2022/09/16 08:11:18;;;;;;;4.53;0.82;;;16.20;65.80;;;;;;4990560;28;20030;-73
2022/09/16 08:13:45;;;;;;;3.58;1.45;;;16.10;68.20;;;;;;4977379;28;20050;-73
2022/09/16 08:16:17;;;;;;;5.38;1.15;;;16.10;69.60;;;;;;4981698;28;20077;-73
2022/09/16 08:18:44;;;;;;;5.13;1.10;;;15.90;71.10;;;;;;4978502;28;20022;-73
2022/09/16 08:21:16;;;;;;;5.45;1.40;;;15.80;72.20;;;;;;4977638;28;20109;-73
2022/09/16 08:23:42;;;;;;;4.78;1.20;;;15.60;73.40;;;;;;4982334;28;20861;-73
2022/09/16 08:26:11;;;;;;;8.63;1.60;;;15.20;73.70;;;;;;4980509;28;20050;-74
2022/09/16 08:28:38;;;;;;;4.68;1.23;;;15.00;76.10;;;;;;4972741;28;20062;-73
2022/09/16 08:31:04;;;;;;;3.10;1.40;;;14.90;76.60;;;;;;4975356;28;20085;-73
2022/09/16 08:33:30;;;;;;;3.80;1.55;;;14.70;76.20;;;;;;4976923;28;20501;-73
2022/09/16 08:36:23;;;;;;;4.93;1.10;;;14.60;76.60;;;;;;4978058;28;20080;-74
2022/09/16 08:38:52;;;;;;;4.18;1.10;;;14.50;76.80;;;;;;4978523;28;20478;-74
2022/09/16 08:41:48;;;;;;;5.13;1.10;;;14.60;76.90;;;;;;4977735;28;20037;-73
2022/09/16 08:44:41;;;;;;;5.78;1.60;;;14.70;77.60;;;;;;4977785;28;20038;-74
2022/09/16 08:47:30;;;;;;;7.90;1.75;;;14.90;77.00;;;;;;4978165;28;20418;-74
2022/09/16 08:49:59;;;;;;;6.97;1.98;;;14.60;79.20;;;;;;4978737;28;20042;-74
2022/09/16 08:52:34;;;;;;;10.30;1.58;;;14.50;80.90;;;;;;4991347;28;20391;-73
2022/09/16 08:55:05;;;;;;;6.30;1.20;;;14.30;81.10;;;;;;4979036;28;20161;-75
2022/09/16 08:57:37;;;;;;;4.75;1.10;;;14.10;80.90;;;;;;4958938;28;20130;-75
2022/09/16 09:00:12;;;;;;;5.85;1.40;;;14.20;82.40;;;;;;4958050;28;20427;-74
2022/09/16 09:02:52;;;;;;;8.52;1.70;;;14.40;82.30;;;;;;4957365;28;20495;-75
2022/09/16 09:05:43;;;;;;;5.20;1.42;;;14.40;81.50;;;;;;4975858;28;20529;-73
2022/09/16 09:08:30;;;;;;;7.05;1.40;;;14.20;81.50;;;;;;4979367;28;20355;-73
2022/09/16 09:11:09;;;;;;;6.18;1.52;;;14.20;82.10;;;;;;4977933;28;20463;-74
2022/09/16 09:13:39;;;;;;;6.88;1.55;;;14.20;82.20;;;;;;4975127;28;20054;-74
2022/09/16 09:16:29;;;;;;;8.93;1.08;;;14.20;82.00;;;;;;4977281;28;20096;-74
2022/09/16 09:19:12;;;;;;;8.40;1.23;;;14.10;81.80;;;;;;4976887;28;20038;-74
2022/09/16 09:22:11;;;;;;;8.55;1.65;;;14.20;83.10;;;;;;4978952;28;20108;-73
2022/09/16 09:24:51;;;;;;;8.90;1.83;;;14.30;81.90;;;;;;4971546;28;20046;-73
2022/09/16 09:27:22;;;;;;;5.13;1.10;;;14.40;82.60;;;;;;4980069;28;20485;-74
2022/09/16 09:29:56;;;;;;;6.43;1.45;;;14.60;82.10;;;;;;4984125;28;20081;-74
2022/09/16 09:32:38;;;;;;;7.65;1.60;;;14.70;81.90;;;;;;4982543;28;20050;-74
2022/09/16 09:35:31;;;;;;;5.03;1.20;;;15.00;81.10;;;;;;4978708;28;20038;-74
2022/09/16 09:38:34;;;;;;;7.35;1.20;;;15.20;81.00;;;;;;4979214;28;20383;-75
2022/09/16 09:41:12;;;;;;;3.13;1.02;;;15.40;79.60;;;;;;4976496;28;20070;-74
2022/09/16 09:43:43;;;;;;;2.70;1.02;;;15.20;78.90;;;;;;4976355;28;20130;-73
2022/09/16 09:46:23;;;;;;;7.00;1.42;;;15.10;80.60;;;;;;4975717;28;20114;-73
2022/09/16 09:49:07;;;;;;;5.70;2.00;;;15.00;81.20;;;;;;4971641;28;20038;-74
2022/09/16 09:51:37;;;;;;;8.85;2.45;;;14.90;81.20;;;;;;4967299;28;20026;-73
2022/09/16 09:54:26;;;;;;;8.18;2.55;;;14.80;81.40;;;;;;4969289;28;20039;-74
2022/09/16 09:57:03;;;;;;;6.20;2.30;;;14.80;80.90;;;;;;4967604;28;20045;-74
2022/09/16 09:59:35;;;;;;;4.68;1.73;;;14.80;81.00;;;;;;4967384;28;20129;-74
2022/09/16 10:02:01;;;;;;;5.88;1.60;;;14.80;81.30;;;;;;4972575;28;20101;-76
2022/09/16 10:04:37;;;;;;;7.25;1.75;;;14.80;80.30;;;;;;4971802;28;20967;-76
2022/09/16 10:07:04;;;;;;;5.60;1.60;;;14.90;79.80;;;;;;4971086;28;20080;-75
2022/09/16 10:09:30;;;;;;;5.55;1.35;;;15.00;80.00;;;;;;4968919;28;20100;-76
2022/09/16 10:11:56;;;;;;;8.63;1.50;;;15.20;80.00;;;;;;4971362;28;20046;-75
2022/09/16 10:14:32;;;;;;;6.55;1.45;;;15.30;78.80;;;;;;4968254;28;20088;-76
2022/09/16 10:17:03;;;;;;;6.15;2.15;;;15.50;79.00;;;;;;4974550;28;20045;-77
2022/09/16 10:19:33;;;;;;;6.78;1.33;;;15.60;77.60;;;;;;4968868;28;20137;-76
2022/09/16 10:22:19;;;;;;;10.43;2.47;;;15.60;77.60;;;;;;4971379;28;20046;-76
2022/09/16 10:24:56;;;;;;;4.70;1.80;;;15.60;77.40;;;;;;4948261;28;20379;-78
2022/09/16 10:27:30;;;;;;;6.50;2.28;;;15.60;77.90;;;;;;4951171;28;20543;-76
2022/09/16 10:30:22;;;;;;;7.03;1.80;;;15.60;78.40;;;;;;4951402;28;20241;-77
2022/09/16 10:32:50;;;;;;;4.82;1.50;;;15.60;78.50;;;;;;4961713;28;20038;-77
2022/09/16 10:35:24;;;;;;;5.28;1.40;;;15.50;78.40;;;;;;4973195;28;20054;-76
2022/09/16 10:37:53;;;;;;;9.27;2.00;;;15.50;78.50;;;;;;4976540;28;20046;-76
2022/09/16 10:40:22;;;;;;;7.53;1.77;;;15.50;79.50;;;;;;4973638;28;20039;-76
2022/09/16 10:42:52;;;;;;;5.68;1.40;;;15.90;79.60;;;;;;4971832;28;20045;-76
2022/09/16 10:45:23;;;;;;;6.15;1.52;;;16.20;78.20;;;;;;4968440;28;20461;-76
2022/09/16 10:47:52;;;;;;;5.93;1.25;;;16.40;76.10;;;;;;4969226;28;20117;-76
2022/09/16 10:50:19;;;;;;;6.78;1.40;;;16.40;74.60;;;;;;4976313;28;20040;-77
2022/09/16 10:52:46;;;;;;;5.95;1.20;;;16.70;73.20;;;;;;4975836;28;20106;-78
2022/09/16 10:55:36;;;;;;;4.32;1.30;;;16.60;71.60;;;;;;4976204;28;20062;-77
2022/09/16 10:58:16;;;;;;;5.55;1.20;;;17.00;71.40;;;;;;4968617;28;20042;-78
2022/09/16 11:00:58;;;;;;;5.22;1.00;;;16.90;69.40;;;;;;4968303;28;20043;-77
2022/09/16 11:03:39;;;;;;;4.75;1.25;;;16.80;68.40;;;;;;4969502;28;20471;-76
2022/09/16 11:06:34;;;;;;;6.78;1.40;;;16.70;68.50;;;;;;4973749;28;20106;-76
2022/09/16 11:09:39;;;;;;;7.40;1.38;;;16.50;70.00;;;;;;4970847;28;20435;-76
2022/09/16 11:12:44;;;;;;;5.63;1.45;;;16.30;70.30;;;;;;4949194;28;20101;-76
2022/09/16 11:15:38;;;;;;;8.17;1.40;;;16.30;71.50;;;;;;4949058;28;20051;-75
2022/09/16 11:18:06;;;;;;;4.72;1.50;;;16.20;71.40;;;;;;4950073;28;20604;-77
2022/09/16 11:20:47;;;;;;;6.15;1.88;;;16.50;73.00;;;;;;4950646;28;20121;-75
2022/09/16 11:23:34;;;;;;;7.20;2.03;;;16.60;71.40;;;;;;4961992;28;20719;-75
2022/09/16 11:26:04;;;;;;;4.93;1.38;;;16.70;69.90;;;;;;4971536;28;20051;-75
2022/09/16 11:28:48;;;;;;;5.85;1.20;;;16.90;69.80;;;;;;4972080;28;20417;-76
2022/09/16 11:31:31;;;;;;;6.43;1.55;;;17.10;70.40;;;;;;4973913;28;20034;-75
2022/09/16 11:34:05;;;;;;;6.45;1.23;;;17.10;66.20;;;;;;4972043;28;21133;-77
2022/09/16 11:36:53;;;;;;;6.05;1.30;;;17.10;65.10;;;;;;4973411;28;20038;-76
2022/09/16 11:39:37;;;;;;;6.53;1.20;;;16.90;64.70;;;;;;4974636;28;20031;-74
2022/09/16 11:42:34;;;;;;;5.80;1.45;;;16.80;64.70;;;;;;4970930;28;20243;-75
2022/09/16 11:45:14;;;;;;;5.07;1.80;;;16.70;64.00;;;;;;4960275;28;20396;-75
2022/09/16 11:48:02;;;;;;;6.75;1.40;;;16.40;63.10;;;;;;4958371;28;20410;-74
2022/09/16 11:50:50;;;;;;;7.38;1.65;;;16.60;64.60;;;;;;4970681;28;20061;-75
2022/09/16 11:53:19;;;;;;;8.18;1.73;;;17.00;62.00;;;;;;4982961;28;20273;-75
2022/09/16 11:55:47;;;;;;;6.18;1.38;;;17.00;63.80;;;;;;4975538;28;20034;-75
2022/09/16 11:58:34;;;;;;;6.63;1.42;;;16.80;63.50;;;;;;4972170;28;20042;-75
2022/09/16 12:01:11;;;;;;;8.15;1.55;;;16.60;63.80;;;;;;4972314;28;20046;-76
2022/09/16 12:03:44;;;;;;;6.63;1.30;;;16.40;64.60;;;;;;4970520;28;20282;-76
2022/09/16 12:06:21;;;;;;;8.25;1.60;;;16.10;65.30;;;;;;4952447;28;20172;-77
2022/09/16 12:09:18;;;;;;;8.27;1.75;;;16.10;67.20;;;;;;4953876;28;20100;-76
2022/09/16 12:11:48;;;;;;;9.52;2.03;;;16.10;67.20;;;;;;4967884;28;20053;-76
2022/09/16 12:14:28;;;;;;;7.05;1.80;;;15.90;67.50;;;;;;4950941;28;20043;-77
2022/09/16 12:17:07;;;;;;;7.45;1.20;;;16.10;67.30;;;;;;4958174;28;20093;-76
2022/09/16 12:19:40;;;;;;;6.50;1.50;;;16.10;66.80;;;;;;4972997;28;20041;-76
2022/09/16 12:22:32;;;;;;;8.55;1.50;;;16.00;64.60;;;;;;4971102;28;20092;-74
2022/09/16 12:25:02;;;;;;;8.25;1.52;;;16.10;64.20;;;;;;4959147;28;20043;-74
2022/09/16 12:27:52;;;;;;;7.35;1.60;;;16.10;63.10;;;;;;4971739;28;20162;-75
2022/09/16 12:30:22;;;;;;;9.70;1.60;;;16.30;63.90;;;;;;4970598;28;20559;-74
2022/09/16 12:33:13;;;;;;;5.47;1.30;;;16.40;63.20;;;;;;4971895;28;20026;-74
2022/09/16 12:35:41;;;;;;;5.70;1.13;;;16.10;62.10;;;;;;4966781;28;20144;-73
2022/09/16 12:38:18;;;;;;;5.13;1.40;;;15.80;63.10;;;;;;4968032;28;20068;-74
2022/09/16 12:40:54;;;;;;;5.45;1.38;;;15.50;65.50;;;;;;4970502;28;20034;-75
2022/09/16 12:43:29;;;;;;;6.43;1.60;;;15.40;67.70;;;;;;4969255;28;20061;-74
2022/09/16 12:46:04;;;;;;;7.45;1.50;;;15.40;69.00;;;;;;4968661;28;20097;-74
2022/09/16 12:48:51;;;;;;;9.10;1.50;;;15.50;70.20;;;;;;4969288;28;20624;-74
2022/09/16 12:51:34;;;;;;;4.43;1.40;;;15.50;69.40;;;;;;4972339;28;20034;-74
2022/09/16 12:54:12;;;;;;;4.70;1.10;;;15.40;67.60;;;;;;4971084;28;20042;-75
2022/09/16 12:57:03;;;;;;;2.65;1.20;;;15.50;66.70;;;;;;4968888;28;20035;-74
2022/09/16 12:59:32;;;;;;;4.90;1.02;;;15.60;65.50;;;;;;4971296;28;20046;-74
2022/09/16 13:02:04;;;;;;;3.80;1.10;;;15.80;65.20;;;;;;4970207;28;20069;-74
2022/09/16 13:04:36;;;;;;;6.32;1.10;;;15.80;65.50;;;;;;4948666;28;20050;-75
2022/09/16 13:07:02;;;;;;;6.72;1.20;;;15.90;66.90;;;;;;4950486;28;20071;-74
2022/09/16 13:09:35;;;;;;;5.80;1.95;;;15.60;66.40;;;;;;4952831;28;20050;-75
2022/09/16 13:12:20;;;;;;;5.88;1.63;;;15.60;67.00;;;;;;4969069;28;20033;-75
2022/09/16 13:14:48;;;;;;;;;;;16.10;68.30;;;;;;4972484;28;21777;-76
2022/09/16 13:17:14;;;;;;;6.85;1.38;;;16.10;68.30;;;;;;4967964;28;19925;-75